createdAt,value
2019-01-05T00:00:57.624Z,8.70
2019-01-05T00:01:57.615Z,10.70
2019-01-05T00:02:57.632Z,10.50
2019-01-05T00:03:57.560Z,10.10
2019-01-05T00:04:57.549Z,11.30
2019-01-05T00:05:57.546Z,10.30
2019-01-05T00:06:57.530Z,6.60
2019-01-05T00:07:57.556Z,7.80
2019-01-05T00:08:57.514Z,8.80
2019-01-05T00:09:57.511Z,9.20
2019-01-05T00:10:57.490Z,11.30
2019-01-05T00:11:57.483Z,10.30
2019-01-05T00:12:57.524Z,4.50
2019-01-05T00:13:57.458Z,11.50
2019-01-05T00:14:57.448Z,8.10
2019-01-05T00:15:57.444Z,7.20
2019-01-05T00:16:57.443Z,8.70
2019-01-05T00:17:57.416Z,11.70
2019-01-05T00:18:57.430Z,7.80
2019-01-05T00:19:57.404Z,6.60
2019-01-05T00:20:57.385Z,5.90
2019-01-05T00:21:57.383Z,4.70
2019-01-05T00:22:57.386Z,8.30
2019-01-05T00:23:57.351Z,7.10
2019-01-05T00:24:57.360Z,9.00
2019-01-05T00:25:57.331Z,8.30
2019-01-05T00:26:57.319Z,6.50
2019-01-05T00:27:57.312Z,8.30
2019-01-05T00:28:57.299Z,8.60
2019-01-05T00:29:57.326Z,8.30
2019-01-05T00:30:57.276Z,10.30
2019-01-05T00:31:57.306Z,8.00
2019-01-05T00:32:57.259Z,6.50
2019-01-05T00:33:57.246Z,5.70
2019-01-05T00:34:57.258Z,8.90
2019-01-05T00:35:57.261Z,9.30
2019-01-05T00:36:57.214Z,9.90
2019-01-05T00:37:57.203Z,8.90
2019-01-05T00:38:58.004Z,9.80
2019-01-05T00:39:57.195Z,8.90
2019-01-05T00:40:57.171Z,10.50
2019-01-05T00:41:57.191Z,8.60
2019-01-05T00:42:57.159Z,9.20
2019-01-05T00:43:57.162Z,12.00
2019-01-05T00:44:57.132Z,12.80
2019-01-05T00:45:57.173Z,8.50
2019-01-05T00:46:57.140Z,7.50
2019-01-05T00:47:57.131Z,12.80
2019-01-05T00:48:57.090Z,12.70
2019-01-05T00:49:57.087Z,10.00
2019-01-05T00:50:57.163Z,9.00
2019-01-05T00:51:57.060Z,10.30
2019-01-05T00:52:57.059Z,7.50
2019-01-05T00:53:57.052Z,10.50
2019-01-05T00:54:57.029Z,6.90
2019-01-05T00:55:57.023Z,9.40
2019-01-05T00:56:57.016Z,10.80
2019-01-05T00:57:56.999Z,9.60
2019-01-05T00:58:57.013Z,13.40
2019-01-05T00:59:56.975Z,10.60
2019-01-05T01:00:56.972Z,13.50
2019-01-05T01:01:56.961Z,9.70
2019-01-05T01:02:56.944Z,16.80
2019-01-05T01:03:56.950Z,14.50
2019-01-05T01:04:56.944Z,15.90
2019-01-05T01:05:56.910Z,12.60
2019-01-05T01:06:56.896Z,21.30
2019-01-05T01:07:56.906Z,13.70
2019-01-05T01:08:56.874Z,22.50
2019-01-05T01:09:56.869Z,20.50
2019-01-05T01:10:56.872Z,21.30
2019-01-05T01:11:56.850Z,20.70
2019-01-05T01:12:56.842Z,17.20
2019-01-05T01:13:56.829Z,23.70
2019-01-05T01:14:56.819Z,29.50
2019-01-05T01:15:56.851Z,17.40
2019-01-05T01:16:56.815Z,23.90
2019-01-05T01:17:56.789Z,23.70
2019-01-05T01:18:56.774Z,19.70
2019-01-05T01:19:56.766Z,26.80
2019-01-05T01:20:56.752Z,27.50
2019-01-05T01:21:56.757Z,25.50
2019-01-05T01:22:56.732Z,32.80
2019-01-05T01:23:56.715Z,31.60
2019-01-05T01:24:56.740Z,31.20
2019-01-05T01:25:56.694Z,24.70
2019-01-05T01:26:56.689Z,33.10
2019-01-05T01:27:56.695Z,32.80
2019-01-05T01:28:56.664Z,20.80
2019-01-05T01:29:56.656Z,29.30
2019-01-05T01:30:56.678Z,28.50
2019-01-05T01:31:56.684Z,25.70
2019-01-05T01:32:56.668Z,26.70
2019-01-05T01:33:56.609Z,26.40
2019-01-05T01:34:56.601Z,23.00
2019-01-05T01:35:56.603Z,22.70
2019-01-05T01:36:56.611Z,26.00
2019-01-05T01:37:56.574Z,15.50
2019-01-05T01:38:56.599Z,30.70
2019-01-05T01:39:56.552Z,26.10
2019-01-05T01:40:56.536Z,28.20
2019-01-05T01:41:56.530Z,20.20
2019-01-05T01:42:56.538Z,23.30
2019-01-05T01:43:56.547Z,28.20
2019-01-05T01:44:56.492Z,21.30
2019-01-05T01:45:56.489Z,22.80
2019-01-05T01:46:56.474Z,25.80
2019-01-05T01:47:56.550Z,18.20
2019-01-05T01:48:56.461Z,22.10
2019-01-05T01:49:56.442Z,21.90
2019-01-05T01:50:56.434Z,23.70
2019-01-05T01:51:57.392Z,27.90
2019-01-05T01:52:56.427Z,17.30
2019-01-05T01:53:56.432Z,20.10
2019-01-05T01:54:56.387Z,19.80
2019-01-05T01:55:56.479Z,20.70
2019-01-05T01:56:56.377Z,20.70
2019-01-05T01:57:56.361Z,18.90
2019-01-05T01:58:56.345Z,17.10
2019-01-05T01:59:56.378Z,13.50
2019-01-05T02:00:56.335Z,18.80
2019-01-05T02:01:56.333Z,17.00
2019-01-05T02:02:56.320Z,20.10
2019-01-05T02:03:56.294Z,14.20
2019-01-05T02:04:56.286Z,14.60
2019-01-05T02:05:56.294Z,19.40
2019-01-05T02:06:56.261Z,20.70
2019-01-05T02:07:56.265Z,17.60
2019-01-05T02:08:56.245Z,16.40
2019-01-05T02:09:56.256Z,19.20
2019-01-05T02:10:56.253Z,18.20
2019-01-05T02:11:56.217Z,19.00
2019-01-05T02:12:56.208Z,21.10
2019-01-05T02:13:56.193Z,19.40
2019-01-05T02:14:56.186Z,19.20
2019-01-05T02:15:56.179Z,20.50
2019-01-05T02:16:56.192Z,17.50
2019-01-05T02:17:56.163Z,22.30
2019-01-05T02:18:56.155Z,24.40
2019-01-05T02:19:56.129Z,17.30
2019-01-05T02:20:56.110Z,23.10
2019-01-05T02:21:56.112Z,25.10
2019-01-05T02:22:56.126Z,20.40
2019-01-05T02:23:56.094Z,24.30
2019-01-05T02:24:56.076Z,20.10
2019-01-05T02:25:56.067Z,26.90
2019-01-05T02:26:56.046Z,32.00
2019-01-05T02:27:56.044Z,21.60
2019-01-05T02:28:56.060Z,24.50
2019-01-05T02:29:56.021Z,24.70
2019-01-05T02:30:56.009Z,22.30
2019-01-05T02:31:56.009Z,30.70
2019-01-05T02:32:55.995Z,31.30
2019-01-05T02:33:55.983Z,29.50
2019-01-05T02:34:55.995Z,26.00
2019-01-05T02:35:55.975Z,25.50
2019-01-05T02:36:55.963Z,22.20
2019-01-05T02:37:55.973Z,23.70
2019-01-05T02:38:55.926Z,23.00
2019-01-05T02:39:55.925Z,22.20
2019-01-05T02:40:55.932Z,26.50
2019-01-05T02:41:55.897Z,29.60
2019-01-05T02:42:55.883Z,31.80
2019-01-05T02:43:55.869Z,28.80
2019-01-05T02:44:55.862Z,23.30
2019-01-05T02:45:55.878Z,19.30
2019-01-05T02:46:55.851Z,22.80
2019-01-05T02:47:55.826Z,20.50
2019-01-05T02:48:55.814Z,20.30
2019-01-05T02:49:55.809Z,22.60
2019-01-05T02:50:55.795Z,15.10
2019-01-05T02:51:55.809Z,14.10
2019-01-05T02:52:55.796Z,20.10
2019-01-05T02:53:55.764Z,18.20
2019-01-05T02:54:55.758Z,23.60
2019-01-05T02:55:55.744Z,19.00
2019-01-05T02:56:55.756Z,16.40
2019-01-05T02:57:55.749Z,21.70
2019-01-05T02:58:55.714Z,22.60
2019-01-05T02:59:55.703Z,23.00
2019-01-05T03:00:55.706Z,21.30
2019-01-05T03:01:55.767Z,17.50
2019-01-05T03:02:55.675Z,20.00
2019-01-05T03:03:55.688Z,17.80
2019-01-05T03:04:55.653Z,20.80
2019-01-05T03:05:55.639Z,20.60
2019-01-05T03:06:55.629Z,14.30
2019-01-05T03:07:55.630Z,20.60
2019-01-05T03:08:55.601Z,21.00
2019-01-05T03:09:55.624Z,17.00
2019-01-05T03:10:55.588Z,19.10
2019-01-05T03:11:55.577Z,15.70
2019-01-05T03:12:55.571Z,17.30
2019-01-05T03:13:55.570Z,15.70
2019-01-05T03:14:55.543Z,13.90
2019-01-05T03:15:55.546Z,13.30
2019-01-05T03:16:55.524Z,17.30
2019-01-05T03:17:55.507Z,17.40
2019-01-05T03:18:55.505Z,15.20
2019-01-05T03:19:55.494Z,17.50
2019-01-05T03:20:55.502Z,17.10
2019-01-05T03:21:55.480Z,15.60
2019-01-05T03:22:55.458Z,11.30
2019-01-05T03:23:55.445Z,16.70
2019-01-05T03:24:55.440Z,15.60
2019-01-05T03:25:55.448Z,17.30
2019-01-05T03:26:55.444Z,18.30
2019-01-05T03:27:55.431Z,15.50
2019-01-05T03:28:55.396Z,19.10
2019-01-05T03:29:55.383Z,18.00
2019-01-05T03:30:55.376Z,14.40
2019-01-05T03:31:55.371Z,15.60
2019-01-05T03:32:55.389Z,21.30
2019-01-05T03:33:55.349Z,13.30
2019-01-05T03:34:55.335Z,14.80
2019-01-05T03:35:55.325Z,15.90
2019-01-05T03:36:55.310Z,15.90
2019-01-05T03:37:55.303Z,18.80
2019-01-05T03:38:55.320Z,17.10
2019-01-05T03:39:55.278Z,12.90
2019-01-05T03:40:55.272Z,16.20
2019-01-05T03:41:55.266Z,16.30
2019-01-05T03:42:55.271Z,18.30
2019-01-05T03:43:55.271Z,16.60
2019-01-05T03:44:55.221Z,17.10
2019-01-05T03:45:55.220Z,15.80
2019-01-05T03:46:55.201Z,13.80
2019-01-05T03:47:55.197Z,11.70
2019-01-05T03:48:55.184Z,13.30
2019-01-05T03:49:55.204Z,10.30
2019-01-05T03:50:55.166Z,12.40
2019-01-05T03:51:55.154Z,13.80
2019-01-05T03:52:55.163Z,15.30
2019-01-05T03:53:55.155Z,12.00
2019-01-05T03:54:55.125Z,10.60
2019-01-05T03:55:55.142Z,10.80
2019-01-05T03:56:55.099Z,11.30
2019-01-05T03:57:55.094Z,13.20
2019-01-05T03:58:55.085Z,14.30
2019-01-05T03:59:55.066Z,13.20
2019-01-05T04:00:55.069Z,12.20
2019-01-05T04:01:55.075Z,11.80
2019-01-05T04:02:55.035Z,10.30
2019-01-05T04:03:55.034Z,8.70
2019-01-05T04:04:55.049Z,10.70
2019-01-05T04:05:55.004Z,9.60
2019-01-05T04:06:55.022Z,7.70
2019-01-05T04:07:54.985Z,12.70
2019-01-05T04:08:54.969Z,10.40
2019-01-05T04:09:54.962Z,10.30
2019-01-05T04:10:54.954Z,6.90
2019-01-05T04:11:54.945Z,11.10
2019-01-05T04:12:54.950Z,9.80
2019-01-05T04:13:54.921Z,7.80
2019-01-05T04:14:54.912Z,8.50
2019-01-05T04:15:54.908Z,8.40
2019-01-05T04:16:54.887Z,9.70
2019-01-05T04:17:54.896Z,7.90
2019-01-05T04:18:54.861Z,9.60
2019-01-05T04:19:54.851Z,8.40
2019-01-05T04:20:54.847Z,8.60
2019-01-05T04:21:54.835Z,8.70
2019-01-05T04:22:54.844Z,8.40
2019-01-05T04:23:54.844Z,9.70
2019-01-05T04:24:54.802Z,10.20
2019-01-05T04:25:54.787Z,10.10
2019-01-05T04:26:54.777Z,10.30
2019-01-05T04:27:54.771Z,8.20
2019-01-05T04:28:54.780Z,8.50
2019-01-05T04:29:54.776Z,8.00
2019-01-05T04:30:54.741Z,7.90
2019-01-05T04:31:54.740Z,8.60
2019-01-05T04:32:54.722Z,5.90
2019-01-05T04:33:54.713Z,5.40
2019-01-05T04:34:54.722Z,6.50
2019-01-05T04:35:54.739Z,9.60
2019-01-05T04:36:54.671Z,8.40
2019-01-05T04:37:54.672Z,10.00
2019-01-05T04:38:54.662Z,8.80
2019-01-05T04:39:54.647Z,8.70
2019-01-05T04:40:54.635Z,11.40
2019-01-05T04:41:54.663Z,5.50
2019-01-05T04:42:54.615Z,6.00
2019-01-05T04:43:54.602Z,5.50
2019-01-05T04:44:54.590Z,7.30
2019-01-05T04:45:54.588Z,7.80
2019-01-05T04:46:54.588Z,8.20
2019-01-05T04:47:54.595Z,6.80
2019-01-05T04:48:54.551Z,10.60
2019-01-05T04:49:54.536Z,6.60
2019-01-05T04:50:54.529Z,8.70
2019-01-05T04:51:54.513Z,8.30
2019-01-05T04:52:54.511Z,9.20
2019-01-05T04:53:54.536Z,9.20
2019-01-05T04:54:54.487Z,7.60
2019-01-05T04:55:54.474Z,8.30
2019-01-05T04:56:54.457Z,5.60
2019-01-05T04:57:54.458Z,7.90
2019-01-05T04:58:54.448Z,10.30
2019-01-05T04:59:54.452Z,7.10
2019-01-05T05:00:54.421Z,8.60
2019-01-05T05:01:54.409Z,11.50
2019-01-05T05:02:54.395Z,7.50
2019-01-05T05:03:54.402Z,8.60
2019-01-05T05:04:54.415Z,9.70
2019-01-05T05:05:54.385Z,7.70
2019-01-05T05:06:54.381Z,8.30
2019-01-05T05:07:54.343Z,9.60
2019-01-05T05:08:54.345Z,9.50
2019-01-05T05:09:54.339Z,8.30
2019-01-05T05:10:54.335Z,8.10
2019-01-05T05:11:54.300Z,10.40
2019-01-05T05:12:54.294Z,9.60
2019-01-05T05:13:54.308Z,6.60
2019-01-05T05:14:54.292Z,10.30
2019-01-05T05:15:54.290Z,6.20
2019-01-05T05:16:54.264Z,10.20
2019-01-05T05:17:54.243Z,7.90
2019-01-05T05:18:54.233Z,11.10
2019-01-05T05:19:54.220Z,11.80
2019-01-05T05:20:54.240Z,10.50
2019-01-05T05:21:54.205Z,8.50
2019-01-05T05:22:54.202Z,9.30
2019-01-05T05:23:54.173Z,8.50
2019-01-05T05:24:54.166Z,12.60
2019-01-05T05:25:54.154Z,10.10
2019-01-05T05:26:54.159Z,10.10
2019-01-05T05:27:54.138Z,9.70
2019-01-05T05:28:54.140Z,9.60
2019-01-05T05:29:54.107Z,10.30
2019-01-05T05:30:54.102Z,13.20
2019-01-05T05:31:54.117Z,12.30
2019-01-05T05:32:54.080Z,11.00
2019-01-05T05:33:54.071Z,11.40
2019-01-05T05:34:54.064Z,11.20
2019-01-05T05:35:54.060Z,11.60
2019-01-05T05:36:54.039Z,13.20
2019-01-05T05:37:54.047Z,9.70
2019-01-05T05:38:54.035Z,10.90
2019-01-05T05:39:54.019Z,9.50
2019-01-05T05:40:53.997Z,8.70
2019-01-05T05:41:53.984Z,10.40
2019-01-05T05:42:54.444Z,13.70
2019-01-05T05:43:53.966Z,11.50
2019-01-05T05:44:53.958Z,10.50
2019-01-05T05:45:53.961Z,11.30
2019-01-05T05:46:53.975Z,11.70
2019-01-05T05:47:54.034Z,10.00
2019-01-05T05:48:53.933Z,9.00
2019-01-05T05:49:53.900Z,10.20
2019-01-05T05:50:53.892Z,10.90
2019-01-05T05:51:53.889Z,10.50
2019-01-05T05:52:53.885Z,9.10
2019-01-05T05:53:53.896Z,9.90
2019-01-05T05:54:53.846Z,11.40
2019-01-05T05:55:53.842Z,12.50
2019-01-05T05:56:53.828Z,12.00
2019-01-05T05:57:53.812Z,11.30
2019-01-05T05:58:53.798Z,9.60
2019-01-05T05:59:53.818Z,12.70
2019-01-05T06:00:53.786Z,10.60
2019-01-05T06:01:53.776Z,10.40
2019-01-05T06:02:53.765Z,10.70
2019-01-05T06:03:53.761Z,12.70
2019-01-05T06:04:53.784Z,12.30
2019-01-05T06:05:53.731Z,12.30
2019-01-05T06:06:53.716Z,9.80
2019-01-05T06:07:53.705Z,9.30
2019-01-05T06:08:53.707Z,10.40
2019-01-05T06:09:53.693Z,13.80
2019-01-05T06:10:53.703Z,10.20
2019-01-05T06:11:53.680Z,11.80
2019-01-05T06:12:53.653Z,10.50
2019-01-05T06:13:53.673Z,9.00
2019-01-05T06:14:53.641Z,13.00
2019-01-05T06:15:53.654Z,13.70
2019-01-05T06:16:53.618Z,14.50
2019-01-05T06:17:53.612Z,10.20
2019-01-05T06:18:53.593Z,12.70
2019-01-05T06:19:53.582Z,11.70
2019-01-05T06:20:53.579Z,12.00
2019-01-05T06:21:53.588Z,14.00
2019-01-05T06:22:53.575Z,13.00
2019-01-05T06:23:53.540Z,10.80
2019-01-05T06:24:53.531Z,9.90
2019-01-05T06:25:53.519Z,11.40
2019-01-05T06:26:53.537Z,13.50
2019-01-05T06:27:53.493Z,12.00
2019-01-05T06:28:53.489Z,12.10
2019-01-05T06:29:53.473Z,13.90
2019-01-05T06:30:53.470Z,13.90
2019-01-05T06:31:53.456Z,12.80
2019-01-05T06:32:53.475Z,13.30
2019-01-05T06:33:53.430Z,15.10
2019-01-05T06:34:53.422Z,13.60
2019-01-05T06:35:53.408Z,12.80
2019-01-05T06:36:53.405Z,16.10
2019-01-05T06:37:53.414Z,15.50
2019-01-05T06:38:53.380Z,11.20
2019-01-05T06:39:53.388Z,10.90
2019-01-05T06:40:53.358Z,14.50
2019-01-05T06:41:53.356Z,13.60
2019-01-05T06:42:53.341Z,15.90
2019-01-05T06:43:53.351Z,17.70
2019-01-05T06:44:53.312Z,12.90
2019-01-05T06:45:53.320Z,16.60
2019-01-05T06:46:53.298Z,12.90
2019-01-05T06:47:53.295Z,15.00
2019-01-05T06:48:53.348Z,19.70
2019-01-05T06:49:53.266Z,16.40
2019-01-05T06:50:53.253Z,16.30
2019-01-05T06:51:53.236Z,14.40
2019-01-05T06:52:53.232Z,16.40
2019-01-05T06:53:53.221Z,13.80
2019-01-05T06:54:53.240Z,13.90
2019-01-05T06:55:53.205Z,14.30
2019-01-05T06:56:53.188Z,21.30
2019-01-05T06:57:53.184Z,16.50
2019-01-05T06:58:53.165Z,16.70
2019-01-05T06:59:53.185Z,15.10
2019-01-05T07:00:53.143Z,14.70
2019-01-05T07:01:53.139Z,14.00
2019-01-05T07:02:53.135Z,17.40
2019-01-05T07:03:53.112Z,21.10
2019-01-05T07:04:53.109Z,15.70
2019-01-05T07:05:53.139Z,14.80
2019-01-05T07:06:53.086Z,18.70
2019-01-05T07:07:53.071Z,14.90
2019-01-05T07:08:53.066Z,15.80
2019-01-05T07:09:53.058Z,16.00
2019-01-05T07:10:53.070Z,16.60
2019-01-05T07:11:53.043Z,18.30
2019-01-05T07:12:53.059Z,14.10
2019-01-05T07:13:53.020Z,14.80
2019-01-05T07:14:52.998Z,17.10
2019-01-05T07:15:53.035Z,17.60
2019-01-05T07:16:52.987Z,18.40
2019-01-05T07:17:52.991Z,17.70
2019-01-05T07:18:52.958Z,21.00
2019-01-05T07:19:52.955Z,14.90
2019-01-05T07:20:52.934Z,20.60
2019-01-05T07:21:52.965Z,18.00
2019-01-05T07:22:52.919Z,15.90
2019-01-05T07:23:52.911Z,20.50
2019-01-05T07:24:52.925Z,19.80
2019-01-05T07:25:52.887Z,24.70
2019-01-05T07:26:52.879Z,18.60
2019-01-05T07:27:52.879Z,19.10
2019-01-05T07:28:52.855Z,18.50
2019-01-05T07:29:52.846Z,22.40
2019-01-05T07:30:52.845Z,23.10
2019-01-05T07:31:52.849Z,21.10
2019-01-05T07:32:52.845Z,20.40
2019-01-05T07:33:52.803Z,19.70
2019-01-05T07:34:52.792Z,19.00
2019-01-05T07:35:52.785Z,19.90
2019-01-05T07:36:52.798Z,20.50
2019-01-05T07:37:52.789Z,20.00
2019-01-05T07:38:52.788Z,20.00
2019-01-05T07:39:52.755Z,25.10
2019-01-05T07:40:52.724Z,24.20
2019-01-05T07:41:52.734Z,22.70
2019-01-05T07:42:52.708Z,19.50
2019-01-05T07:43:52.707Z,21.70
2019-01-05T07:44:52.713Z,22.10
2019-01-05T07:45:52.684Z,17.70
2019-01-05T07:46:52.683Z,22.80
2019-01-05T07:47:52.656Z,22.80
2019-01-05T07:48:52.661Z,20.70
2019-01-05T07:49:52.669Z,19.20
2019-01-05T07:50:52.622Z,20.30
2019-01-05T07:51:52.637Z,25.20
2019-01-05T07:52:52.603Z,20.80
2019-01-05T07:53:52.601Z,21.90
2019-01-05T07:54:52.595Z,22.80
2019-01-05T07:55:52.620Z,21.80
2019-01-05T07:56:52.566Z,21.20
2019-01-05T07:57:52.554Z,20.80
2019-01-05T07:58:52.546Z,20.80
2019-01-05T07:59:52.529Z,20.80
2019-01-05T08:00:52.547Z,23.70
2019-01-05T08:01:52.532Z,21.50
2019-01-05T08:02:52.506Z,22.90
2019-01-05T08:03:52.492Z,19.60
2019-01-05T08:04:52.473Z,21.40
2019-01-05T08:05:52.475Z,23.10
2019-01-05T08:06:52.480Z,26.60
2019-01-05T08:07:52.457Z,24.90
2019-01-05T08:08:52.434Z,22.40
2019-01-05T08:09:52.429Z,23.20
2019-01-05T08:10:52.412Z,22.70
2019-01-05T08:11:52.445Z,25.80
2019-01-05T08:12:52.393Z,21.40
2019-01-05T08:13:52.382Z,25.60
2019-01-05T08:14:52.376Z,19.10
2019-01-05T08:15:52.370Z,23.50
2019-01-05T08:16:52.349Z,25.50
2019-01-05T08:17:52.380Z,26.40
2019-01-05T08:18:52.334Z,22.40
2019-01-05T08:19:52.325Z,24.90
2019-01-05T08:20:52.308Z,17.90
2019-01-05T08:21:52.311Z,27.50
2019-01-05T08:22:52.285Z,23.80
2019-01-05T08:23:52.316Z,26.10
2019-01-05T08:24:52.267Z,23.50
2019-01-05T08:25:52.259Z,23.10
2019-01-05T08:26:52.254Z,24.20
2019-01-05T08:27:52.248Z,19.80
2019-01-05T08:28:52.247Z,21.20
2019-01-05T08:29:52.247Z,29.30
2019-01-05T08:30:52.203Z,20.30
2019-01-05T08:31:52.193Z,24.30
2019-01-05T08:32:52.178Z,26.10
2019-01-05T08:33:52.199Z,27.60
2019-01-05T08:34:52.165Z,27.50
2019-01-05T08:35:52.159Z,21.50
2019-01-05T08:36:52.145Z,24.90
2019-01-05T08:37:52.126Z,24.00
2019-01-05T08:38:52.131Z,24.80
2019-01-05T08:39:52.130Z,24.00
2019-01-05T08:40:52.133Z,26.50
2019-01-05T08:41:52.085Z,28.60
2019-01-05T08:42:52.078Z,27.00
2019-01-05T08:43:52.110Z,23.50
2019-01-05T08:44:52.058Z,26.00
2019-01-05T08:45:52.087Z,29.70
2019-01-05T08:46:52.034Z,24.90
2019-01-05T08:47:52.040Z,23.00
2019-01-05T08:48:52.021Z,26.00
2019-01-05T08:49:52.036Z,25.80
2019-01-05T08:50:52.011Z,27.60
2019-01-05T08:51:52.022Z,23.40
2019-01-05T08:52:52.011Z,28.30
2019-01-05T08:53:52.023Z,25.80
2019-01-05T08:54:51.976Z,22.50
2019-01-05T08:55:56.093Z,27.40
2019-01-05T08:56:51.924Z,29.60
2019-01-05T08:57:51.918Z,23.50
2019-01-05T08:58:51.903Z,29.60
2019-01-05T08:59:51.909Z,32.00
2019-01-05T09:00:51.883Z,27.00
2019-01-05T09:01:51.893Z,28.60
2019-01-05T09:02:51.902Z,25.70
2019-01-05T09:03:51.860Z,27.90
2019-01-05T09:04:51.876Z,30.70
2019-01-05T09:05:51.832Z,25.20
2019-01-05T09:06:51.854Z,29.30
2019-01-05T09:07:51.812Z,27.10
2019-01-05T09:08:51.802Z,24.90
2019-01-05T09:09:51.804Z,28.20
2019-01-05T09:10:51.794Z,29.10
2019-01-05T09:11:51.770Z,29.70
2019-01-05T09:12:51.785Z,28.20
2019-01-05T09:13:51.766Z,30.00
2019-01-05T09:14:51.742Z,29.40
2019-01-05T09:15:51.738Z,27.40
2019-01-05T09:16:51.725Z,33.30
2019-01-05T09:17:51.748Z,26.70
2019-01-05T09:18:51.699Z,27.30
2019-01-05T09:19:51.693Z,27.60
2019-01-05T09:20:51.674Z,27.80
2019-01-05T09:21:51.695Z,31.70
2019-01-05T09:22:51.655Z,28.50
2019-01-05T09:23:51.706Z,34.20
2019-01-05T09:24:51.641Z,29.80
2019-01-05T09:25:51.614Z,25.20
2019-01-05T09:26:51.648Z,27.40
2019-01-05T09:27:51.598Z,32.50
2019-01-05T09:28:51.582Z,24.30
2019-01-05T09:29:51.596Z,27.20
2019-01-05T09:30:51.576Z,26.10
2019-01-05T09:31:51.596Z,26.80
2019-01-05T09:32:51.544Z,30.00
2019-01-05T09:33:51.558Z,27.70
2019-01-05T09:34:51.955Z,32.80
2019-01-05T09:35:51.597Z,27.60
2019-01-05T09:36:51.556Z,29.50
2019-01-05T09:37:51.488Z,28.00
2019-01-05T09:38:51.526Z,31.40
2019-01-05T09:39:51.494Z,29.30
2019-01-05T09:40:51.462Z,29.50
2019-01-05T09:41:51.836Z,32.40
2019-01-05T09:42:51.612Z,31.70
2019-01-05T09:43:51.440Z,31.90
2019-01-05T09:44:51.425Z,29.30
2019-01-05T09:45:51.436Z,28.10
2019-01-05T09:46:51.403Z,29.20
2019-01-05T09:47:51.390Z,29.60
2019-01-05T09:48:51.406Z,33.40
2019-01-05T09:49:51.365Z,31.50
2019-01-05T09:50:51.361Z,31.40
2019-01-05T09:51:51.366Z,28.30
2019-01-05T09:52:51.401Z,31.70
2019-01-05T09:53:51.518Z,30.10
2019-01-05T09:54:51.357Z,29.70
2019-01-05T09:55:51.412Z,26.00
2019-01-05T09:56:51.374Z,31.10
2019-01-05T09:57:51.282Z,31.20
2019-01-05T09:58:51.266Z,34.00
2019-01-05T09:59:51.256Z,26.60
2019-01-05T10:00:51.248Z,29.90
2019-01-05T10:01:51.281Z,29.80
2019-01-05T10:02:51.226Z,30.00
2019-01-05T10:03:51.325Z,27.80
2019-01-05T10:04:51.204Z,33.50
2019-01-05T10:05:51.233Z,34.00
2019-01-05T10:06:51.198Z,33.20
2019-01-05T10:07:51.225Z,31.40
2019-01-05T10:08:51.173Z,32.00
2019-01-05T10:09:52.050Z,31.90
2019-01-05T10:10:51.171Z,35.40
2019-01-05T10:11:51.126Z,31.50
2019-01-05T10:12:51.129Z,32.80
2019-01-05T10:13:51.135Z,38.00
2019-01-05T10:14:51.127Z,33.70
2019-01-05T10:15:51.093Z,28.40
2019-01-05T10:16:51.100Z,33.30
2019-01-05T10:17:51.069Z,38.30
2019-01-05T10:18:51.077Z,30.00
2019-01-05T10:19:51.044Z,29.90
2019-01-05T10:20:51.038Z,34.60
2019-01-05T10:21:51.030Z,37.10
2019-01-05T10:22:51.008Z,32.40
2019-01-05T10:23:51.029Z,29.40
2019-01-05T10:24:51.003Z,30.30
2019-01-05T10:25:51.011Z,29.40
2019-01-05T10:26:50.968Z,33.50
2019-01-05T10:27:50.963Z,29.60
2019-01-05T10:28:50.945Z,30.80
2019-01-05T10:29:50.969Z,33.00
2019-01-05T10:30:50.941Z,28.70
2019-01-05T10:31:51.828Z,34.40
2019-01-05T10:32:51.029Z,38.50
2019-01-05T10:33:50.920Z,32.40
2019-01-05T10:34:50.882Z,32.00
2019-01-05T10:35:51.750Z,32.40
2019-01-05T10:36:50.872Z,35.10
2019-01-05T10:37:50.865Z,34.00
2019-01-05T10:38:50.853Z,36.50
2019-01-05T10:39:50.971Z,34.70
2019-01-05T10:40:50.849Z,31.40
2019-01-05T10:41:50.808Z,30.40
2019-01-05T10:42:50.883Z,29.00
2019-01-05T10:43:50.790Z,30.10
2019-01-05T10:44:50.776Z,33.60
2019-01-05T10:45:50.849Z,33.40
2019-01-05T10:46:50.760Z,29.70
2019-01-05T10:47:51.324Z,36.30
2019-01-05T10:48:50.741Z,31.70
2019-01-05T10:49:50.726Z,31.20
2019-01-05T10:50:50.720Z,28.50
2019-01-05T10:51:50.777Z,32.90
2019-01-05T10:52:50.698Z,33.30
2019-01-05T10:53:50.687Z,30.50
2019-01-05T10:54:50.680Z,27.80
2019-01-05T10:55:50.661Z,32.00
2019-01-05T10:56:50.677Z,29.20
2019-01-05T10:57:50.650Z,35.00
2019-01-05T10:58:50.707Z,29.80
2019-01-05T10:59:50.622Z,29.50
2019-01-05T11:00:50.609Z,36.10
2019-01-05T11:01:50.608Z,32.90
2019-01-05T11:02:50.617Z,34.60
2019-01-05T11:03:50.574Z,34.60
2019-01-05T11:04:50.599Z,34.60
2019-01-05T11:05:50.556Z,38.90
2019-01-05T11:06:50.755Z,32.20
2019-01-05T11:07:50.558Z,30.20
2019-01-05T11:08:50.524Z,30.00
2019-01-05T11:09:50.526Z,34.50
2019-01-05T11:10:50.504Z,35.00
2019-01-05T11:11:50.496Z,34.00
2019-01-05T11:12:50.529Z,33.90
2019-01-05T11:13:50.474Z,38.60
2019-01-05T11:14:50.462Z,32.00
2019-01-05T11:15:50.452Z,34.20
2019-01-05T11:16:50.441Z,32.20
2019-01-05T11:17:50.434Z,33.20
2019-01-05T11:18:50.454Z,33.50
2019-01-05T11:19:50.417Z,35.20
2019-01-05T11:20:50.400Z,33.50
2019-01-05T11:21:50.393Z,41.50
2019-01-05T11:22:50.382Z,35.50
2019-01-05T11:23:50.390Z,32.60
2019-01-05T11:24:50.365Z,31.90
2019-01-05T11:25:50.341Z,35.70
2019-01-05T11:26:50.329Z,34.90
2019-01-05T11:27:50.319Z,38.60
2019-01-05T11:28:50.370Z,30.20
2019-01-05T11:29:50.332Z,32.70
2019-01-05T11:30:50.313Z,34.40
2019-01-05T11:31:50.331Z,29.30
2019-01-05T11:32:50.290Z,33.70
2019-01-05T11:33:50.306Z,33.00
2019-01-05T11:34:50.273Z,35.60
2019-01-05T11:35:50.237Z,36.50
2019-01-05T11:36:50.235Z,34.70
2019-01-05T11:37:50.213Z,36.60
2019-01-05T11:38:50.211Z,36.20
2019-01-05T11:39:50.208Z,29.40
2019-01-05T11:40:50.226Z,35.60
2019-01-05T11:41:50.182Z,33.30
2019-01-05T11:42:50.224Z,28.20
2019-01-05T11:43:50.162Z,31.80
2019-01-05T11:44:50.142Z,34.10
2019-01-05T11:45:50.144Z,30.30
2019-01-05T11:46:50.144Z,34.40
2019-01-05T11:47:50.156Z,35.50
2019-01-05T11:48:50.113Z,33.00
2019-01-05T11:49:50.087Z,38.90
2019-01-05T11:50:50.088Z,34.60
2019-01-05T11:51:50.094Z,35.60
2019-01-05T11:52:50.062Z,36.10
2019-01-05T11:53:50.044Z,33.70
2019-01-05T11:54:50.098Z,30.60
2019-01-05T11:55:50.022Z,35.20
2019-01-05T11:56:50.043Z,37.90
2019-01-05T11:57:50.007Z,40.40
2019-01-05T11:58:50.004Z,39.10
2019-01-05T11:59:49.990Z,38.30
2019-01-05T12:00:50.003Z,41.90
2019-01-05T12:01:49.999Z,38.50
2019-01-05T12:02:49.967Z,38.20
2019-01-05T12:03:49.944Z,41.00
2019-01-05T12:04:49.939Z,32.20
2019-01-05T12:05:49.924Z,39.30
2019-01-05T12:06:49.910Z,39.00
2019-01-05T12:07:49.924Z,35.90
2019-01-05T12:08:49.911Z,40.00
2019-01-05T12:09:49.897Z,41.50
2019-01-05T12:10:49.872Z,37.50
2019-01-05T12:11:49.860Z,40.40
2019-01-05T12:12:49.859Z,43.40
2019-01-05T12:13:49.870Z,38.90
2019-01-05T12:14:49.836Z,41.90
2019-01-05T12:15:49.817Z,34.10
2019-01-05T12:16:49.839Z,38.70
2019-01-05T12:17:49.789Z,33.90
2019-01-05T12:18:49.817Z,37.10
2019-01-05T12:19:49.767Z,42.90
2019-01-05T12:20:49.790Z,44.70
2019-01-05T12:21:49.758Z,41.40
2019-01-05T12:22:49.751Z,44.30
2019-01-05T12:23:49.752Z,40.00
2019-01-05T12:24:49.736Z,41.80
2019-01-05T12:25:49.706Z,40.30
2019-01-05T12:26:49.701Z,36.30
2019-01-05T12:27:49.687Z,35.90
2019-01-05T12:28:49.709Z,37.20
2019-01-05T12:29:49.699Z,41.80
2019-01-05T12:30:49.665Z,47.90
2019-01-05T12:31:49.638Z,37.90
2019-01-05T12:32:49.638Z,34.90
2019-01-05T12:33:49.642Z,36.80
2019-01-05T12:34:49.617Z,39.80
2019-01-05T12:35:49.630Z,38.60
2019-01-05T12:36:49.621Z,40.20
2019-01-05T12:37:49.583Z,36.10
2019-01-05T12:38:49.575Z,38.40
2019-01-05T12:39:49.561Z,32.70
2019-01-05T12:40:49.576Z,41.30
2019-01-05T12:41:49.539Z,41.20
2019-01-05T12:42:49.532Z,36.10
2019-01-05T12:43:49.519Z,34.40
2019-01-05T12:44:49.520Z,37.00
2019-01-05T12:45:49.550Z,36.80
2019-01-05T12:46:49.510Z,37.80
2019-01-05T12:47:49.471Z,44.20
2019-01-05T12:48:49.468Z,35.90
2019-01-05T12:49:49.448Z,39.60
2019-01-05T12:50:49.443Z,40.50
2019-01-05T12:51:49.430Z,35.20
2019-01-05T12:52:49.457Z,39.70
2019-01-05T12:53:49.468Z,37.30
2019-01-05T12:54:49.395Z,41.80
2019-01-05T12:55:49.391Z,39.70
2019-01-05T12:56:49.390Z,42.30